Time;durP1;ratioP1;P1;durP2;ratioP2;P2;SDS_P1;SDS_P2;PMS_P1;PMS_P2;Temp;Humidity;BMP_temperature;BMP_pressure;BME280_temperature;BME280_humidity;BME280_pressure;Samples;Min_cycle;Max_cycle;Signal;HPM_P1;HPM_P2
2020/12/20 00:02:05;;;;;;;8.05;4.40;;;8.30;87.70;;;;;;5042045;28;20025;-67
2020/12/20 00:04:30;;;;;;;7.13;4.60;;;8.20;88.00;;;;;;5064900;28;20024;-66
2020/12/20 00:06:56;;;;;;;6.45;4.38;;;8.20;88.00;;;;;;5063444;28;20050;-68
2020/12/20 00:09:22;;;;;;;9.27;4.80;;;8.10;88.30;;;;;;5042770;28;20276;-67
2020/12/20 00:11:50;;;;;;;9.75;4.82;;;8.20;88.10;;;;;;5065384;28;20032;-67
2020/12/20 00:14:28;;;;;;;7.57;4.22;;;8.10;88.40;;;;;;5062099;28;20400;-67
2020/12/20 00:17:04;;;;;;;9.88;4.78;;;8.00;88.70;;;;;;5038412;28;20033;-67
2020/12/20 00:19:31;;;;;;;6.97;4.07;;;7.90;89.00;;;;;;5058370;28;20093;-67
2020/12/20 00:22:16;;;;;;;5.78;4.10;;;7.90;88.90;;;;;;5069960;28;20078;-67
2020/12/20 00:24:43;;;;;;;7.18;4.93;;;7.90;89.00;;;;;;5047738;28;20421;-66
2020/12/20 00:27:13;;;;;;;6.82;4.30;;;7.90;89.00;;;;;;5062346;28;20507;-67
2020/12/20 00:29:39;;;;;;;7.05;4.45;;;7.80;89.00;;;;;;5059539;28;20079;-67
2020/12/20 00:32:07;;;;;;;6.97;4.60;;;7.70;89.40;;;;;;5045127;28;20032;-67
2020/12/20 00:34:33;;;;;;;7.97;4.75;;;7.60;89.30;;;;;;5056015;28;20476;-67
2020/12/20 00:37:00;;;;;;;10.45;4.80;;;7.60;89.30;;;;;;5065385;28;20090;-66
2020/12/20 00:39:26;;;;;;;8.73;4.97;;;7.70;89.40;;;;;;5060601;28;20025;-67
2020/12/20 00:41:54;;;;;;;9.55;4.47;;;7.60;89.40;;;;;;5063679;28;20488;-67
2020/12/20 00:44:20;;;;;;;9.65;5.13;;;7.50;89.30;;;;;;5058698;28;20102;-67
2020/12/20 00:46:47;;;;;;;11.25;4.82;;;7.50;89.70;;;;;;5061548;28;20024;-66
2020/12/20 00:49:12;;;;;;;8.68;4.78;;;7.40;89.80;;;;;;5067777;28;20043;-67
2020/12/20 00:51:38;;;;;;;8.90;4.85;;;7.30;90.40;;;;;;5069204;28;20111;-68
2020/12/20 00:54:04;;;;;;;8.52;4.93;;;7.30;90.10;;;;;;5064507;28;20029;-67
2020/12/20 00:56:29;;;;;;;8.10;4.25;;;7.30;90.10;;;;;;5067931;28;20083;-67
2020/12/20 00:58:55;;;;;;;7.53;4.55;;;7.20;90.30;;;;;;5067357;28;20177;-66
2020/12/20 01:01:24;;;;;;;8.07;4.97;;;7.20;90.40;;;;;;5068957;28;20032;-66
2020/12/20 01:03:50;;;;;;;9.00;4.38;;;7.20;90.30;;;;;;5063490;28;20081;-68
2020/12/20 01:06:23;;;;;;;9.20;5.05;;;7.10;90.60;;;;;;5063913;28;20388;-67
2020/12/20 01:08:50;;;;;;;9.00;4.78;;;7.10;90.80;;;;;;5063467;28;20504;-66
2020/12/20 01:11:16;;;;;;;9.50;4.90;;;7.20;90.70;;;;;;5057768;28;20483;-66
2020/12/20 01:13:43;;;;;;;7.85;5.65;;;7.20;90.50;;;;;;5088360;28;20031;-67
2020/12/20 01:16:17;;;;;;;7.68;4.97;;;7.10;90.60;;;;;;5056389;28;20067;-67
2020/12/20 01:18:43;;;;;;;6.90;4.82;;;7.20;90.60;;;;;;5068529;28;20059;-67
2020/12/20 01:21:08;;;;;;;10.18;5.45;;;7.30;90.30;;;;;;5067041;28;22367;-67
2020/12/20 01:23:34;;;;;;;8.32;5.18;;;7.30;90.10;;;;;;5065389;28;20070;-68
2020/12/20 01:26:00;;;;;;;8.32;5.10;;;7.30;90.00;;;;;;5063742;28;20047;-66
2020/12/20 01:28:29;;;;;;;7.28;4.72;;;7.50;89.90;;;;;;5048667;28;20025;-67
2020/12/20 01:30:55;;;;;;;7.75;4.60;;;7.60;89.20;;;;;;5063284;28;20414;-67
2020/12/20 01:33:21;;;;;;;8.63;4.50;;;7.40;89.60;;;;;;5068381;28;20399;-67
2020/12/20 01:35:47;;;;;;;8.80;4.75;;;7.40;89.90;;;;;;5067337;28;20025;-66
2020/12/20 01:38:13;;;;;;;7.95;4.85;;;7.30;90.00;;;;;;5067143;28;20448;-67
2020/12/20 01:40:38;;;;;;;8.68;5.40;;;7.30;90.00;;;;;;5065686;28;20043;-67
2020/12/20 01:43:04;;;;;;;7.03;4.75;;;7.40;89.90;;;;;;5064946;28;20037;-68
2020/12/20 01:45:29;;;;;;;10.55;5.13;;;7.40;89.70;;;;;;5076162;28;20062;-67
2020/12/20 01:47:55;;;;;;;9.02;5.18;;;7.40;89.60;;;;;;5063638;28;20108;-67
2020/12/20 01:50:21;;;;;;;7.40;4.97;;;7.30;89.90;;;;;;5030800;28;20029;-68
2020/12/20 01:52:47;;;;;;;8.65;4.82;;;7.20;89.90;;;;;;5065856;28;20115;-67
2020/12/20 01:55:13;;;;;;;8.13;5.07;;;7.10;90.20;;;;;;5061806;28;20115;-67
2020/12/20 01:57:40;;;;;;;9.75;4.65;;;7.00;90.50;;;;;;5063683;28;20036;-67
2020/12/20 02:00:05;;;;;;;8.88;5.15;;;6.90;90.80;;;;;;5067320;28;20101;-68
2020/12/20 02:02:31;;;;;;;7.80;4.93;;;6.80;91.20;;;;;;5066264;28;20026;-68
2020/12/20 02:04:57;;;;;;;7.85;5.22;;;6.80;91.20;;;;;;5065643;28;20041;-68
2020/12/20 02:07:23;;;;;;;12.48;5.88;;;6.80;91.50;;;;;;5064916;28;20048;-67
2020/12/20 02:09:49;;;;;;;9.30;5.25;;;6.90;91.00;;;;;;5063948;28;20056;-67
2020/12/20 02:12:14;;;;;;;8.98;5.38;;;6.90;91.00;;;;;;5065006;28;20104;-67
2020/12/20 02:14:40;;;;;;;8.05;5.07;;;6.80;91.20;;;;;;5066129;28;20077;-68
2020/12/20 02:17:06;;;;;;;10.75;5.00;;;6.80;91.10;;;;;;5065155;28;20028;-67
2020/12/20 02:19:32;;;;;;;6.72;4.72;;;6.80;91.10;;;;;;5070416;28;20119;-66
2020/12/20 02:21:57;;;;;;;9.05;5.03;;;6.80;90.80;;;;;;5070079;28;20115;-67
2020/12/20 02:24:23;;;;;;;10.50;5.22;;;6.80;91.10;;;;;;5062615;28;20058;-67
2020/12/20 02:26:49;;;;;;;6.85;4.35;;;6.80;91.20;;;;;;5060620;28;20031;-68
2020/12/20 02:29:14;;;;;;;7.25;4.97;;;6.80;91.00;;;;;;5061479;28;20043;-67
2020/12/20 02:31:40;;;;;;;9.05;4.93;;;6.80;91.00;;;;;;5063805;28;20029;-67
2020/12/20 02:34:06;;;;;;;8.45;5.10;;;6.70;91.20;;;;;;5067182;28;20418;-66
2020/12/20 02:36:32;;;;;;;9.57;5.07;;;6.80;91.40;;;;;;5064515;28;20130;-67
2020/12/20 02:38:58;;;;;;;11.50;5.90;;;6.60;91.50;;;;;;5066639;28;20497;-67
2020/12/20 02:41:24;;;;;;;9.13;5.10;;;6.60;91.70;;;;;;5063088;28;20020;-67
2020/12/20 02:43:49;;;;;;;8.25;5.20;;;6.50;91.90;;;;;;5065966;28;20099;-67
2020/12/20 02:46:18;;;;;;;10.55;5.25;;;6.60;91.90;;;;;;5065317;28;20040;-67
2020/12/20 02:48:45;;;;;;;9.68;5.45;;;6.50;91.90;;;;;;5062796;28;20040;-66
2020/12/20 02:51:11;;;;;;;10.15;4.97;;;6.60;91.80;;;;;;5057683;28;20327;-66
2020/12/20 02:53:37;;;;;;;8.02;5.80;;;6.60;91.80;;;;;;5065383;28;20181;-66
2020/12/20 02:56:02;;;;;;;9.32;5.55;;;6.70;91.60;;;;;;5066081;28;20040;-66
2020/12/20 02:58:28;;;;;;;9.40;5.93;;;6.80;91.30;;;;;;5100919;22;20081;-68
2020/12/20 03:00:54;;;;;;;9.95;5.55;;;6.80;91.30;;;;;;5043674;28;20076;-68
2020/12/20 03:03:19;;;;;;;7.97;5.15;;;6.80;91.20;;;;;;5047948;28;20044;-68
2020/12/20 03:05:45;;;;;;;9.43;5.68;;;6.80;91.20;;;;;;5044338;28;20096;-69
2020/12/20 03:08:10;;;;;;;8.52;5.00;;;6.80;91.30;;;;;;5047294;28;20029;-67
2020/12/20 03:10:36;;;;;;;9.77;4.90;;;6.90;91.20;;;;;;5035687;28;20025;-67
2020/12/20 03:13:02;;;;;;;7.20;4.55;;;7.00;90.80;;;;;;5031855;28;20025;-70
2020/12/20 03:15:27;;;;;;;8.93;5.13;;;7.00;90.70;;;;;;5027209;28;20171;-68
2020/12/20 03:17:53;;;;;;;7.90;4.78;;;7.00;90.80;;;;;;5029297;28;20528;-67
2020/12/20 03:20:18;;;;;;;8.52;4.75;;;7.10;90.50;;;;;;5028694;28;20034;-68
2020/12/20 03:22:44;;;;;;;8.23;4.97;;;7.10;90.30;;;;;;5028829;28;20084;-68
2020/12/20 03:25:10;;;;;;;8.30;4.55;;;7.10;90.20;;;;;;5027041;28;20033;-68
2020/12/20 03:27:35;;;;;;;9.60;5.10;;;7.10;90.20;;;;;;5023345;28;20485;-68
2020/12/20 03:30:02;;;;;;;7.53;4.78;;;7.20;89.90;;;;;;5032834;28;20022;-66
2020/12/20 03:32:28;;;;;;;8.20;4.72;;;7.20;89.90;;;;;;5028843;28;20031;-67
2020/12/20 03:34:54;;;;;;;10.77;4.97;;;7.20;90.10;;;;;;5029570;28;20025;-67
2020/12/20 03:37:20;;;;;;;6.88;4.88;;;7.20;90.00;;;;;;5025067;28;20034;-68
2020/12/20 03:39:45;;;;;;;7.88;4.55;;;7.20;89.80;;;;;;5029543;28;20043;-68
2020/12/20 03:42:11;;;;;;;7.80;4.43;;;7.20;90.10;;;;;;5028419;28;20040;-69
2020/12/20 03:44:36;;;;;;;7.60;4.82;;;7.20;90.10;;;;;;5030496;28;20025;-67
2020/12/20 03:47:02;;;;;;;11.23;4.93;;;7.10;90.20;;;;;;5033001;28;20025;-67
2020/12/20 03:49:28;;;;;;;8.98;4.60;;;7.10;90.30;;;;;;5029725;28;20033;-68
2020/12/20 03:51:53;;;;;;;7.78;4.55;;;7.10;90.40;;;;;;5025910;28;20025;-69
2020/12/20 03:54:19;;;;;;;7.72;4.72;;;7.10;90.40;;;;;;5026421;28;20040;-68
2020/12/20 03:56:45;;;;;;;9.10;5.10;;;7.10;90.40;;;;;;5029067;28;20029;-68
2020/12/20 03:59:10;;;;;;;6.13;4.32;;;7.10;90.20;;;;;;5029184;28;20106;-68
2020/12/20 04:01:36;;;;;;;8.02;5.05;;;7.10;90.20;;;;;;5028133;28;20033;-67
2020/12/20 04:04:01;;;;;;;7.35;5.03;;;7.10;90.20;;;;;;5028194;28;20083;-67
2020/12/20 04:06:27;;;;;;;9.50;4.93;;;7.10;90.30;;;;;;5026854;28;20056;-67
2020/12/20 04:08:52;;;;;;;7.75;4.55;;;7.10;90.40;;;;;;5027429;28;20386;-67
2020/12/20 04:11:18;;;;;;;8.98;4.95;;;7.10;90.30;;;;;;5028574;28;20026;-67
2020/12/20 04:13:44;;;;;;;9.18;5.38;;;7.10;90.40;;;;;;5026416;28;20040;-68
2020/12/20 04:16:11;;;;;;;8.95;4.97;;;7.10;90.30;;;;;;5029087;28;20032;-68
2020/12/20 04:18:37;;;;;;;8.00;4.85;;;7.10;90.30;;;;;;5029862;28;20037;-67
2020/12/20 04:21:04;;;;;;;7.70;5.05;;;7.10;90.00;;;;;;5043940;28;20033;-67
2020/12/20 04:23:30;;;;;;;8.40;4.65;;;7.20;89.90;;;;;;5029114;28;20060;-68
2020/12/20 04:25:55;;;;;;;9.82;4.68;;;7.20;89.70;;;;;;5032692;28;20033;-68
2020/12/20 04:28:21;;;;;;;8.60;5.18;;;7.10;89.90;;;;;;5031306;28;20032;-66
2020/12/20 04:30:47;;;;;;;7.15;4.60;;;7.10;90.10;;;;;;5032654;28;20405;-66
2020/12/20 04:33:13;;;;;;;7.88;4.63;;;7.10;90.00;;;;;;5031897;28;20159;-67
2020/12/20 04:35:39;;;;;;;8.75;4.45;;;7.10;90.00;;;;;;5029629;28;20112;-68
2020/12/20 04:38:04;;;;;;;9.82;5.07;;;7.10;89.90;;;;;;5031646;28;20041;-70
2020/12/20 04:40:30;;;;;;;8.80;5.13;;;7.10;90.10;;;;;;5032659;28;20449;-68
2020/12/20 04:43:07;;;;;;;6.93;4.53;;;7.10;90.30;;;;;;5030991;28;20389;-66
2020/12/20 04:45:33;;;;;;;8.68;4.82;;;7.10;90.40;;;;;;5032590;28;20037;-68
2020/12/20 04:48:01;;;;;;;6.88;4.70;;;7.10;90.30;;;;;;5029007;28;20127;-66
2020/12/20 04:50:28;;;;;;;7.97;4.75;;;7.10;90.50;;;;;;5039713;28;20033;-67
2020/12/20 04:52:55;;;;;;;7.43;5.03;;;7.00;90.50;;;;;;5028505;28;20551;-67
2020/12/20 04:55:21;;;;;;;7.80;5.07;;;7.10;90.10;;;;;;5031543;28;20289;-67
2020/12/20 04:57:49;;;;;;;8.15;4.78;;;7.10;90.30;;;;;;5031416;28;20029;-66
2020/12/20 05:00:15;;;;;;;8.85;4.90;;;7.10;90.30;;;;;;5031771;28;20045;-67
2020/12/20 05:02:41;;;;;;;8.68;5.30;;;7.10;90.20;;;;;;5029778;28;20588;-67
2020/12/20 05:05:07;;;;;;;9.27;4.90;;;7.10;90.20;;;;;;5031266;28;20025;-67
2020/12/20 05:07:33;;;;;;;8.82;4.85;;;7.10;90.00;;;;;;5021813;28;20022;-68
2020/12/20 05:09:59;;;;;;;7.43;5.05;;;7.10;90.00;;;;;;5035472;28;20033;-67
2020/12/20 05:12:29;;;;;;;9.27;5.05;;;7.10;90.10;;;;;;5037046;28;20033;-68
2020/12/20 05:14:55;;;;;;;7.57;4.75;;;7.10;90.20;;;;;;5032133;28;20125;-67
2020/12/20 05:17:21;;;;;;;7.90;4.38;;;7.10;89.70;;;;;;5030629;28;20029;-70
2020/12/20 05:19:46;;;;;;;7.63;4.53;;;7.20;89.50;;;;;;5031614;28;20253;-67
2020/12/20 05:22:17;;;;;;;9.70;4.95;;;7.20;89.60;;;;;;5029406;28;20105;-67
2020/12/20 05:24:45;;;;;;;7.38;4.68;;;7.20;89.50;;;;;;5031477;28;20025;-67
2020/12/20 05:27:23;;;;;;;8.60;5.35;;;7.20;89.60;;;;;;5029292;28;20044;-69
2020/12/20 05:29:52;;;;;;;8.73;5.00;;;7.20;89.40;;;;;;5030690;28;20057;-67
2020/12/20 05:32:28;;;;;;;8.02;5.30;;;7.10;89.60;;;;;;5029528;28;20057;-69
2020/12/20 05:34:58;;;;;;;8.52;4.78;;;7.10;89.60;;;;;;5029262;28;20468;-68
2020/12/20 05:37:28;;;;;;;8.50;4.45;;;7.10;89.70;;;;;;5025287;28;20591;-67
2020/12/20 05:39:55;;;;;;;7.32;4.60;;;7.10;89.40;;;;;;5030044;28;20132;-67
2020/12/20 05:42:23;;;;;;;8.10;4.97;;;7.10;89.80;;;;;;5030216;28;20044;-68
2020/12/20 05:45:09;;;;;;;6.95;4.38;;;7.20;89.50;;;;;;5035621;28;20051;-66
2020/12/20 05:47:37;;;;;;;7.07;4.80;;;7.10;89.80;;;;;;5023014;28;20413;-67
2020/12/20 05:50:04;;;;;;;8.88;4.90;;;7.10;89.60;;;;;;5030461;28;20036;-70
2020/12/20 05:52:29;;;;;;;7.70;4.70;;;7.10;89.50;;;;;;5029536;28;20412;-68
2020/12/20 05:54:55;;;;;;;6.70;4.43;;;7.00;89.80;;;;;;5027235;28;20027;-68
2020/12/20 05:57:22;;;;;;;8.80;4.93;;;7.00;89.90;;;;;;5028354;28;20057;-67
2020/12/20 05:59:50;;;;;;;7.10;4.45;;;7.00;89.90;;;;;;5029727;28;20396;-68
2020/12/20 06:02:16;;;;;;;6.75;4.45;;;7.00;90.00;;;;;;5026441;28;20017;-68
2020/12/20 06:04:43;;;;;;;10.68;5.50;;;7.00;90.00;;;;;;5028550;28;20022;-67
2020/12/20 06:07:11;;;;;;;8.02;4.80;;;7.00;90.00;;;;;;5027740;28;20043;-67
2020/12/20 06:09:57;;;;;;;7.55;5.07;;;7.00;90.00;;;;;;5020369;28;20030;-67
2020/12/20 06:12:26;;;;;;;7.72;4.85;;;7.00;89.80;;;;;;5027847;28;20033;-67
2020/12/20 06:14:53;;;;;;;8.43;4.97;;;7.00;89.90;;;;;;5029510;28;20034;-69
2020/12/20 06:17:27;;;;;;;8.68;5.25;;;7.00;90.00;;;;;;5029457;28;20037;-67
2020/12/20 06:19:58;;;;;;;9.63;4.82;;;7.00;89.90;;;;;;5038245;28;20112;-67
2020/12/20 06:22:32;;;;;;;10.48;4.80;;;6.90;90.10;;;;;;5026669;28;20547;-67
2020/12/20 06:25:00;;;;;;;6.80;4.68;;;7.00;89.70;;;;;;5027718;28;20505;-66
2020/12/20 06:27:28;;;;;;;7.72;5.07;;;6.90;89.80;;;;;;5028040;28;20029;-67
2020/12/20 06:30:06;;;;;;;10.82;5.07;;;6.90;90.00;;;;;;5027033;28;20026;-70
2020/12/20 06:32:51;;;;;;;8.45;5.45;;;6.90;90.10;;;;;;5019914;28;20041;-68
2020/12/20 06:35:25;;;;;;;12.40;4.97;;;6.90;90.20;;;;;;5028500;28;20266;-67
2020/12/20 06:37:52;;;;;;;7.85;5.18;;;6.90;90.10;;;;;;5026244;28;20022;-67
2020/12/20 06:40:30;;;;;;;8.35;5.20;;;6.90;90.20;;;;;;5026243;28;20165;-67
2020/12/20 06:42:59;;;;;;;8.88;5.32;;;6.90;90.10;;;;;;5027559;28;20034;-69
2020/12/20 06:45:27;;;;;;;7.57;5.00;;;6.90;90.20;;;;;;5030085;28;20049;-67
2020/12/20 06:48:00;;;;;;;8.68;4.88;;;6.90;90.20;;;;;;5029509;28;20028;-67
2020/12/20 06:50:43;;;;;;;8.18;5.25;;;6.90;90.20;;;;;;5023942;28;20121;-67
2020/12/20 06:53:09;;;;;;;6.75;4.63;;;6.90;90.00;;;;;;5028752;28;20029;-68
2020/12/20 06:55:35;;;;;;;7.85;5.18;;;6.90;90.00;;;;;;5030650;28;20540;-66
2020/12/20 06:58:04;;;;;;;7.63;5.18;;;6.90;90.00;;;;;;5027691;28;20160;-68
2020/12/20 07:00:44;;;;;;;8.75;5.13;;;6.90;90.10;;;;;;5025376;28;20052;-67
2020/12/20 07:03:31;;;;;;;7.80;4.85;;;6.90;90.10;;;;;;5027241;28;20041;-67
2020/12/20 07:06:08;;;;;;;11.35;6.55;;;6.90;89.90;;;;;;5026074;28;20116;-67
2020/12/20 07:08:35;;;;;;;12.15;7.18;;;7.00;89.90;;;;;;5023536;28;20379;-69
2020/12/20 07:11:18;;;;;;;10.73;6.63;;;7.00;89.60;;;;;;5036244;28;20036;-67
2020/12/20 07:13:48;;;;;;;9.50;6.20;;;6.90;90.00;;;;;;5036859;28;20517;-67
2020/12/20 07:16:18;;;;;;;9.65;5.80;;;6.90;90.10;;;;;;5027272;28;20644;-68
2020/12/20 07:19:09;;;;;;;7.85;5.65;;;6.80;90.20;;;;;;5029810;28;20041;-67
2020/12/20 07:21:44;;;;;;;10.18;6.10;;;6.80;90.30;;;;;;5033626;28;20168;-67
2020/12/20 07:24:11;;;;;;;8.63;5.80;;;6.80;90.30;;;;;;5029377;28;20061;-70
2020/12/20 07:26:37;;;;;;;8.77;5.95;;;6.70;90.50;;;;;;5028766;28;20048;-67
2020/12/20 07:29:04;;;;;;;8.93;6.43;;;6.70;90.70;;;;;;5027992;28;20463;-67
2020/12/20 07:31:30;;;;;;;9.20;5.97;;;6.60;90.80;;;;;;5029060;28;20025;-68
2020/12/20 07:33:56;;;;;;;8.43;5.75;;;6.70;90.50;;;;;;5026307;28;20037;-67
2020/12/20 07:36:22;;;;;;;11.52;6.53;;;6.70;90.60;;;;;;5029121;28;20029;-67
2020/12/20 07:38:49;;;;;;;11.38;5.40;;;6.70;90.40;;;;;;5029944;28;20057;-66
2020/12/20 07:41:16;;;;;;;9.05;5.88;;;6.70;90.40;;;;;;5025570;28;20029;-68
2020/12/20 07:43:46;;;;;;;13.20;5.82;;;6.80;90.50;;;;;;5027100;28;20493;-69
2020/12/20 07:46:13;;;;;;;10.65;6.10;;;6.80;90.40;;;;;;5031712;28;20541;-68
2020/12/20 07:48:39;;;;;;;8.55;5.72;;;6.80;90.30;;;;;;5029279;28;20481;-68
2020/12/20 07:51:10;;;;;;;9.32;5.65;;;6.70;90.60;;;;;;5038357;28;20041;-67
2020/12/20 07:53:43;;;;;;;12.57;6.05;;;6.70;90.60;;;;;;5013963;28;20160;-68
2020/12/20 07:56:09;;;;;;;11.57;5.82;;;6.60;90.70;;;;;;5013417;28;20025;-67
2020/12/20 07:58:34;;;;;;;8.00;5.60;;;6.70;90.60;;;;;;5012771;28;20026;-68
2020/12/20 08:01:05;;;;;;;9.07;5.93;;;6.70;90.50;;;;;;5017061;28;20034;-72
2020/12/20 08:03:30;;;;;;;8.75;5.97;;;6.70;90.40;;;;;;5027419;28;20029;-68
2020/12/20 08:06:07;;;;;;;9.50;6.22;;;6.70;90.40;;;;;;5026933;28;20040;-68
2020/12/20 08:08:33;;;;;;;11.10;6.50;;;6.70;90.50;;;;;;5028443;28;20405;-69
2020/12/20 08:11:02;;;;;;;8.93;5.68;;;6.60;90.60;;;;;;5027821;28;20033;-67
2020/12/20 08:13:28;;;;;;;8.35;6.15;;;6.70;90.50;;;;;;5024450;28;20032;-67
2020/12/20 08:15:54;;;;;;;8.48;5.82;;;6.70;90.40;;;;;;5025173;28;20235;-68
2020/12/20 08:18:20;;;;;;;10.38;5.90;;;6.70;90.50;;;;;;5025998;28;20030;-68
2020/12/20 08:20:46;;;;;;;13.80;6.55;;;6.80;90.40;;;;;;5030143;28;20038;-68
2020/12/20 08:23:12;;;;;;;9.40;5.63;;;6.80;90.50;;;;;;5019383;28;20037;-68
2020/12/20 08:25:37;;;;;;;12.60;6.10;;;6.80;90.40;;;;;;5025554;28;20079;-68
2020/12/20 08:28:03;;;;;;;8.73;5.90;;;6.70;90.40;;;;;;5025047;28;20037;-67
2020/12/20 08:30:29;;;;;;;13.40;5.63;;;6.80;90.10;;;;;;5027583;28;20017;-67
2020/12/20 08:32:54;;;;;;;8.68;5.47;;;6.80;90.20;;;;;;5026580;28;20041;-68
2020/12/20 08:35:24;;;;;;;8.23;6.07;;;6.80;90.20;;;;;;5028311;28;20448;-68
2020/12/20 08:37:55;;;;;;;9.63;6.30;;;6.80;90.30;;;;;;5026806;28;20037;-68
2020/12/20 08:40:21;;;;;;;8.40;5.80;;;6.80;90.40;;;;;;5028334;28;20060;-69
2020/12/20 08:42:50;;;;;;;10.40;6.00;;;6.80;90.50;;;;;;5024562;28;20052;-69
2020/12/20 08:45:18;;;;;;;8.38;6.15;;;6.80;90.50;;;;;;5027020;28;20029;-68
2020/12/20 08:47:45;;;;;;;10.07;6.13;;;6.80;90.40;;;;;;5024946;28;20033;-67
2020/12/20 08:50:12;;;;;;;9.40;5.80;;;6.80;90.60;;;;;;5027113;28;20033;-68
2020/12/20 08:52:38;;;;;;;8.73;5.97;;;6.80;90.40;;;;;;5021960;28;20032;-67
2020/12/20 08:55:05;;;;;;;8.52;6.40;;;6.80;90.50;;;;;;5028367;28;20038;-68
2020/12/20 08:57:33;;;;;;;7.68;5.82;;;6.80;90.50;;;;;;5020486;28;20519;-69
2020/12/20 09:00:17;;;;;;;9.10;6.25;;;6.80;90.50;;;;;;4999537;28;20479;-67
2020/12/20 09:02:43;;;;;;;9.63;5.90;;;6.80;90.60;;;;;;5046306;28;20493;-67
2020/12/20 09:05:13;;;;;;;9.25;6.00;;;6.80;90.40;;;;;;5042066;28;20049;-67
2020/12/20 09:07:47;;;;;;;10.82;6.40;;;6.90;90.30;;;;;;5047261;28;20040;-67
2020/12/20 09:10:12;;;;;;;10.63;6.28;;;6.90;90.30;;;;;;5040862;28;20388;-68
2020/12/20 09:13:01;;;;;;;12.80;5.82;;;7.00;90.20;;;;;;5047592;28;20031;-67
2020/12/20 09:15:30;;;;;;;9.68;6.10;;;7.00;90.40;;;;;;5051104;28;20049;-68
2020/12/20 09:18:01;;;;;;;10.77;6.10;;;7.00;90.50;;;;;;5050494;28;20091;-67
2020/12/20 09:20:28;;;;;;;9.20;5.75;;;6.90;90.50;;;;;;5060158;28;20048;-67
2020/12/20 09:22:56;;;;;;;10.80;6.40;;;7.00;90.20;;;;;;5050478;28;20040;-67
2020/12/20 09:25:31;;;;;;;9.95;6.18;;;7.00;90.10;;;;;;5048878;28;20022;-66
2020/12/20 09:27:59;;;;;;;10.02;6.50;;;7.00;90.30;;;;;;5042553;28;20025;-67
2020/12/20 09:30:37;;;;;;;10.85;6.63;;;7.10;90.30;;;;;;5046988;28;20087;-67
2020/12/20 09:33:34;;;;;;;10.43;6.55;;;7.10;90.00;;;;;;5050939;28;20040;-67
2020/12/20 09:36:11;;;;;;;10.43;6.07;;;7.10;90.20;;;;;;5049474;28;20513;-68
2020/12/20 09:38:40;;;;;;;10.02;6.78;;;7.10;90.30;;;;;;5049388;28;20069;-68
2020/12/20 09:41:08;;;;;;;9.55;6.18;;;7.10;90.20;;;;;;5051789;28;20500;-67
2020/12/20 09:43:34;;;;;;;12.38;6.88;;;7.10;90.30;;;;;;5050050;28;20043;-67
2020/12/20 09:46:01;;;;;;;11.80;6.63;;;7.10;90.00;;;;;;5043988;28;20021;-67
2020/12/20 09:48:28;;;;;;;15.30;6.85;;;7.10;90.10;;;;;;5050973;28;20084;-68
2020/12/20 09:50:54;;;;;;;9.90;6.50;;;7.20;89.80;;;;;;5035751;28;20026;-67
2020/12/20 09:53:20;;;;;;;9.95;6.82;;;7.20;90.10;;;;;;5045275;28;20397;-67
2020/12/20 09:55:45;;;;;;;13.65;6.80;;;7.20;90.00;;;;;;5048428;28;20059;-67
2020/12/20 09:58:13;;;;;;;11.07;6.72;;;7.30;89.80;;;;;;5048810;28;20405;-67
2020/12/20 10:00:39;;;;;;;10.75;7.05;;;7.30;89.80;;;;;;5053133;28;20515;-67
2020/12/20 10:03:06;;;;;;;8.98;6.00;;;7.30;89.80;;;;;;5049256;28;20044;-67
2020/12/20 10:05:32;;;;;;;11.25;6.70;;;7.30;89.90;;;;;;5051811;28;20057;-68
2020/12/20 10:07:58;;;;;;;10.38;6.57;;;7.40;90.00;;;;;;5049850;28;20028;-67
2020/12/20 10:10:24;;;;;;;10.15;6.63;;;7.40;89.80;;;;;;5042232;28;20028;-67
2020/12/20 10:12:50;;;;;;;11.43;6.53;;;7.40;89.70;;;;;;5043281;28;20032;-67
2020/12/20 10:15:16;;;;;;;11.45;6.63;;;7.40;89.90;;;;;;5051230;28;20024;-67
2020/12/20 10:17:42;;;;;;;8.82;6.30;;;7.50;89.70;;;;;;5047311;28;20378;-67
2020/12/20 10:20:07;;;;;;;10.25;6.43;;;7.50;89.70;;;;;;5047818;28;20027;-67
2020/12/20 10:22:33;;;;;;;9.85;6.43;;;7.50;89.60;;;;;;5046854;28;20032;-67
2020/12/20 10:24:59;;;;;;;11.52;6.78;;;7.60;89.80;;;;;;5042452;28;20028;-68
2020/12/20 10:27:24;;;;;;;9.27;6.15;;;7.60;89.70;;;;;;5043693;28;20051;-67
2020/12/20 10:29:50;;;;;;;10.60;6.68;;;7.60;89.60;;;;;;5070425;28;20074;-68
2020/12/20 10:32:15;;;;;;;10.52;6.50;;;7.70;89.60;;;;;;5056984;28;20036;-68
2020/12/20 10:34:41;;;;;;;13.32;6.97;;;7.70;89.60;;;;;;5040065;28;20488;-67
2020/12/20 10:37:07;;;;;;;10.35;6.68;;;7.70;89.30;;;;;;5058415;28;20049;-67
2020/12/20 10:39:33;;;;;;;11.52;6.25;;;7.70;89.80;;;;;;5051484;28;20036;-67
2020/12/20 10:41:58;;;;;;;11.35;6.22;;;7.80;89.30;;;;;;5049472;28;20381;-67
2020/12/20 10:44:24;;;;;;;11.25;6.47;;;7.80;89.70;;;;;;5050219;28;20114;-68
2020/12/20 10:46:54;;;;;;;9.30;5.95;;;7.80;89.50;;;;;;5049355;28;20079;-68
2020/12/20 10:49:20;;;;;;;10.60;6.43;;;7.80;89.70;;;;;;5062325;28;20039;-67
2020/12/20 10:51:53;;;;;;;12.65;6.40;;;7.80;89.60;;;;;;5043625;28;20026;-67
2020/12/20 10:54:20;;;;;;;11.60;6.75;;;7.80;89.60;;;;;;5050482;28;20028;-67
2020/12/20 10:56:47;;;;;;;9.98;6.45;;;7.80;90.00;;;;;;5050444;28;20021;-67
2020/12/20 10:59:13;;;;;;;8.88;5.88;;;7.80;89.80;;;;;;5036361;28;20037;-67
2020/12/20 11:01:39;;;;;;;9.60;6.03;;;7.90;89.70;;;;;;5030434;28;20083;-68
2020/12/20 11:04:04;;;;;;;11.20;6.75;;;7.90;89.70;;;;;;5047791;28;20297;-68
2020/12/20 11:06:30;;;;;;;9.70;6.38;;;7.90;89.60;;;;;;5046689;28;20020;-67
2020/12/20 11:08:56;;;;;;;9.55;7.05;;;7.90;89.70;;;;;;5040025;28;20519;-67
2020/12/20 11:11:31;;;;;;;9.20;6.80;;;7.90;89.80;;;;;;5041306;28;20142;-67
2020/12/20 11:13:58;;;;;;;9.30;6.05;;;8.00;89.90;;;;;;5049060;28;20394;-67
2020/12/20 11:16:23;;;;;;;9.73;6.68;;;8.10;89.70;;;;;;5049814;28;20024;-67
2020/12/20 11:18:49;;;;;;;10.45;6.95;;;8.10;89.30;;;;;;5045626;28;20105;-67
2020/12/20 11:21:19;;;;;;;9.77;6.95;;;8.10;89.20;;;;;;5030160;28;20032;-68
2020/12/20 11:23:46;;;;;;;11.13;6.55;;;8.20;88.80;;;;;;5047983;28;20044;-67
2020/12/20 11:26:13;;;;;;;10.85;6.60;;;8.20;89.30;;;;;;5069608;28;20051;-67
2020/12/20 11:28:40;;;;;;;9.88;7.00;;;8.20;89.20;;;;;;5048151;28;20029;-67
2020/12/20 11:31:07;;;;;;;9.93;6.78;;;8.30;89.40;;;;;;5050254;28;20079;-67
2020/12/20 11:33:33;;;;;;;10.43;6.70;;;8.30;89.00;;;;;;5050047;28;20075;-68
2020/12/20 11:35:58;;;;;;;10.45;6.53;;;8.30;89.00;;;;;;5050214;28;20436;-67
2020/12/20 11:38:24;;;;;;;10.80;6.60;;;8.40;89.10;;;;;;5051441;28;20047;-67
2020/12/20 11:40:50;;;;;;;11.48;7.65;;;8.40;88.90;;;;;;5055504;28;20031;-67
2020/12/20 11:43:16;;;;;;;9.07;6.63;;;8.40;89.10;;;;;;5044816;28;20052;-67
2020/12/20 11:45:42;;;;;;;10.38;7.20;;;8.40;88.90;;;;;;5050244;28;20079;-68
2020/12/20 11:48:07;;;;;;;10.57;7.43;;;8.40;89.30;;;;;;5041497;28;20112;-68
2020/12/20 11:50:33;;;;;;;10.43;7.05;;;8.40;89.10;;;;;;5049743;28;20066;-67
2020/12/20 11:52:59;;;;;;;11.73;7.03;;;8.40;89.40;;;;;;5047128;28;20032;-67
2020/12/20 11:55:24;;;;;;;13.15;6.65;;;8.40;89.20;;;;;;5064213;28;20033;-68
2020/12/20 11:57:50;;;;;;;10.40;6.93;;;8.40;89.10;;;;;;5061780;28;20033;-67
2020/12/20 12:00:15;;;;;;;10.60;6.93;;;8.40;89.30;;;;;;5045309;28;20041;-67
2020/12/20 12:02:41;;;;;;;10.23;6.95;;;8.40;89.40;;;;;;5042371;28;20037;-67
2020/12/20 12:05:06;;;;;;;9.10;6.10;;;8.40;89.30;;;;;;5056929;28;20020;-68
2020/12/20 12:07:32;;;;;;;12.10;6.55;;;8.50;89.30;;;;;;5036520;28;20075;-67
2020/12/20 12:09:58;;;;;;;10.20;6.45;;;8.40;89.40;;;;;;5049086;28;20071;-67
2020/12/20 12:12:24;;;;;;;9.82;6.90;;;8.50;89.60;;;;;;5047372;28;20096;-68
2020/12/20 12:14:49;;;;;;;12.85;7.28;;;8.50;89.40;;;;;;5049184;28;20543;-68
2020/12/20 12:17:16;;;;;;;10.00;6.28;;;8.50;89.50;;;;;;5048110;28;20120;-67
2020/12/20 12:19:42;;;;;;;8.98;6.57;;;8.50;89.50;;;;;;5058417;28;20032;-67
2020/12/20 12:22:07;;;;;;;10.77;6.68;;;8.50;89.50;;;;;;5041308;28;20029;-67
2020/12/20 12:24:33;;;;;;;10.02;6.53;;;8.50;89.40;;;;;;5044388;28;20114;-67
2020/12/20 12:26:59;;;;;;;9.20;6.85;;;8.50;89.50;;;;;;5036963;28;20594;-68
2020/12/20 12:29:24;;;;;;;10.68;6.88;;;8.50;89.60;;;;;;5050220;28;22536;-69
2020/12/20 12:31:50;;;;;;;9.43;7.00;;;8.50;89.50;;;;;;5069099;28;20029;-67
2020/12/20 12:34:15;;;;;;;10.70;7.25;;;8.50;89.40;;;;;;5049521;28;20467;-67
2020/12/20 12:36:41;;;;;;;12.10;6.72;;;8.50;89.70;;;;;;5049588;28;20094;-67
2020/12/20 12:39:09;;;;;;;11.40;7.43;;;8.50;89.60;;;;;;5050649;28;20124;-67
2020/12/20 12:41:34;;;;;;;10.48;6.57;;;8.50;89.40;;;;;;5070302;28;20040;-67
2020/12/20 12:44:00;;;;;;;10.02;6.78;;;8.60;89.40;;;;;;5056999;28;20848;-67
2020/12/20 12:46:26;;;;;;;9.30;6.70;;;8.60;89.40;;;;;;5052722;28;20104;-67
2020/12/20 12:48:51;;;;;;;11.68;6.93;;;8.60;89.80;;;;;;5042984;28;20026;-68
2020/12/20 12:51:25;;;;;;;9.82;6.60;;;8.60;89.40;;;;;;5032919;28;20031;-67
2020/12/20 12:53:51;;;;;;;11.38;6.80;;;8.60;89.50;;;;;;5043808;28;20564;-67
2020/12/20 12:56:17;;;;;;;9.15;6.55;;;8.60;89.70;;;;;;5052957;28;20025;-67